createdAt,value
2022-08-17T00:00:34.570Z,99002.38
2022-08-17T00:03:02.904Z,99001.88
2022-08-17T00:05:33.367Z,98997.00
2022-08-17T00:08:00.875Z,99002.53
2022-08-17T00:10:28.367Z,99009.78
2022-08-17T00:13:05.649Z,99015.03
2022-08-17T00:15:35.931Z,99009.69
2022-08-17T00:18:03.569Z,99005.66
2022-08-17T00:20:50.896Z,99009.22
2022-08-17T00:23:18.532Z,99000.69
2022-08-17T00:25:47.277Z,98998.41
2022-08-17T00:28:16.391Z,99003.72
2022-08-17T00:30:52.922Z,99003.00
2022-08-17T00:33:29.441Z,99002.16
2022-08-17T00:35:59.760Z,98999.94
2022-08-17T00:38:29.122Z,98996.06
2022-08-17T00:41:00.169Z,98998.84
2022-08-17T00:43:44.512Z,98997.38
2022-08-17T00:46:21.319Z,98994.34
2022-08-17T00:48:49.796Z,98997.59
2022-08-17T00:51:39.040Z,99009.00
2022-08-17T00:54:14.626Z,99000.56
2022-08-17T00:57:10.739Z,99003.50
2022-08-17T00:59:41.877Z,99015.06
2022-08-17T01:02:13.044Z,99010.47
2022-08-17T01:04:40.634Z,99014.34
2022-08-17T01:07:08.591Z,99014.00
2022-08-17T01:09:36.056Z,99009.94
2022-08-17T01:12:03.617Z,99010.56
2022-08-17T01:14:31.118Z,99016.84
2022-08-17T01:16:58.581Z,99013.41
2022-08-17T01:19:29.913Z,99001.56
2022-08-17T01:22:08.334Z,98999.88
2022-08-17T01:24:41.572Z,99003.41
2022-08-17T01:27:10.788Z,98996.34
2022-08-17T01:29:41.698Z,99002.88
2022-08-17T01:32:10.027Z,98998.31
2022-08-17T01:34:43.691Z,98998.59
2022-08-17T01:37:18.998Z,98987.97
2022-08-17T01:39:53.119Z,98992.81
2022-08-17T01:42:42.399Z,98990.41
2022-08-17T01:45:16.834Z,98988.84
2022-08-17T01:47:44.665Z,98984.97
2022-08-17T01:50:16.174Z,98992.00
2022-08-17T01:52:45.850Z,98997.69
2022-08-17T01:55:16.349Z,98996.06
2022-08-17T01:57:45.641Z,98991.59
2022-08-17T02:00:14.586Z,98986.84
2022-08-17T02:02:42.849Z,98987.28
2022-08-17T02:05:10.453Z,98982.78
2022-08-17T02:07:59.424Z,98983.81
2022-08-17T02:10:25.345Z,98979.34
2022-08-17T02:13:02.864Z,98977.44
2022-08-17T02:15:30.521Z,98982.03
2022-08-17T02:17:57.977Z,98968.81
2022-08-17T02:20:41.620Z,98977.63
2022-08-17T02:23:13.338Z,98975.34
2022-08-17T02:25:43.566Z,98980.13
2022-08-17T02:28:12.463Z,98976.84
2022-08-17T02:30:59.932Z,98977.31
2022-08-17T02:33:41.497Z,98975.41
2022-08-17T02:36:13.491Z,98978.81
2022-08-17T02:38:41.701Z,98986.47
2022-08-17T02:41:09.669Z,98982.69
2022-08-17T02:43:37.244Z,98982.31
2022-08-17T02:46:04.643Z,98986.88
2022-08-17T02:48:32.147Z,98987.44
2022-08-17T02:51:01.217Z,98987.53
2022-08-17T02:53:31.812Z,98991.81
2022-08-17T02:56:04.153Z,98989.97
2022-08-17T02:58:35.283Z,98994.19
2022-08-17T03:01:06.550Z,98987.69
2022-08-17T03:03:35.214Z,98991.91
2022-08-17T03:06:03.567Z,98993.84
2022-08-17T03:08:31.304Z,98996.59
2022-08-17T03:10:58.755Z,98997.34
2022-08-17T03:13:27.609Z,98999.84
2022-08-17T03:15:55.371Z,99006.66
2022-08-17T03:18:25.314Z,99002.69
2022-08-17T03:20:59.306Z,99009.69
2022-08-17T03:23:29.739Z,98995.16
2022-08-17T03:25:59.533Z,98993.59
2022-08-17T03:28:28.326Z,98996.34
2022-08-17T03:30:55.909Z,99002.03
2022-08-17T03:33:23.518Z,98994.66
2022-08-17T03:35:51.308Z,99001.34
2022-08-17T03:38:19.218Z,98996.13
2022-08-17T03:40:57.603Z,99004.94
2022-08-17T03:43:29.550Z,99003.72
2022-08-17T03:46:34.372Z,99006.34
2022-08-17T03:49:24.922Z,99009.41
2022-08-17T03:52:13.106Z,99014.84
2022-08-17T03:55:00.845Z,99023.28
2022-08-17T03:57:29.235Z,99028.66
2022-08-17T03:59:58.030Z,99027.13
2022-08-17T04:02:30.107Z,99035.41
2022-08-17T04:04:58.607Z,99029.00
2022-08-17T04:07:29.698Z,99034.47
2022-08-17T04:09:58.219Z,99032.63
2022-08-17T04:12:26.708Z,99036.69
2022-08-17T04:14:57.295Z,99037.53
2022-08-17T04:17:27.917Z,99042.56
2022-08-17T04:19:56.356Z,99037.16
2022-08-17T04:22:30.009Z,99042.50
2022-08-17T04:25:16.767Z,99050.53
2022-08-17T04:27:44.509Z,99045.16
2022-08-17T04:30:12.685Z,99053.56
2022-08-17T04:33:06.185Z,99046.28
2022-08-17T04:35:38.137Z,99056.94
2022-08-17T04:38:06.896Z,99050.44
2022-08-17T04:40:53.034Z,99054.25
2022-08-17T04:43:22.493Z,99061.84
2022-08-17T04:45:56.654Z,99062.91
2022-08-17T04:48:29.809Z,99058.81
2022-08-17T04:51:11.390Z,99058.78
2022-08-17T04:53:41.243Z,99063.28
2022-08-17T04:56:11.648Z,99061.66
2022-08-17T04:58:39.484Z,99057.72
2022-08-17T05:01:07.553Z,99067.59
2022-08-17T05:03:35.195Z,99065.19
2022-08-17T05:06:02.453Z,99062.50
2022-08-17T05:08:29.855Z,99068.06
2022-08-17T05:10:57.195Z,99064.97
2022-08-17T05:13:26.663Z,99063.44
2022-08-17T05:15:57.288Z,99069.56
2022-08-17T05:18:25.595Z,99074.66
2022-08-17T05:20:53.378Z,99065.03
2022-08-17T05:23:23.131Z,99074.31
2022-08-17T05:25:54.715Z,99077.69
2022-08-17T05:28:26.572Z,99082.41
2022-08-17T05:30:57.646Z,99086.63
2022-08-17T05:33:28.282Z,99087.22
2022-08-17T05:35:57.707Z,99084.16
2022-08-17T05:38:26.801Z,99085.16
2022-08-17T05:40:55.167Z,99084.16
2022-08-17T05:43:31.729Z,99083.81
2022-08-17T05:46:02.031Z,99092.53
2022-08-17T05:48:35.554Z,99086.06
2022-08-17T05:51:32.641Z,99080.94
2022-08-17T05:54:18.329Z,99092.66
2022-08-17T05:56:51.116Z,99091.09
2022-08-17T05:59:29.428Z,99092.38
2022-08-17T06:02:09.553Z,99089.50
2022-08-17T06:04:55.016Z,99092.31
2022-08-17T06:07:26.998Z,99092.88
2022-08-17T06:10:20.868Z,99099.00
2022-08-17T06:13:09.237Z,99104.47
2022-08-17T06:16:33.521Z,99101.72
2022-08-17T06:19:01.500Z,99099.75
2022-08-17T06:21:34.677Z,99105.00
2022-08-17T06:24:08.702Z,99102.59
2022-08-17T06:26:43.208Z,99108.63
2022-08-17T06:29:37.327Z,99103.50
2022-08-17T06:32:12.111Z,99105.25
2022-08-17T06:34:42.129Z,99103.88
2022-08-17T06:37:31.249Z,99096.56
2022-08-17T06:40:40.042Z,99095.69
2022-08-17T06:43:40.291Z,99091.63
2022-08-17T06:46:22.853Z,99092.66
2022-08-17T06:49:08.560Z,99093.06
2022-08-17T06:51:43.372Z,99085.06
2022-08-17T06:54:24.623Z,99096.31
2022-08-17T06:57:05.744Z,99082.72
2022-08-17T06:59:53.256Z,99085.34
2022-08-17T07:02:56.470Z,99097.28
2022-08-17T07:05:28.849Z,99086.28
2022-08-17T07:08:18.679Z,99086.28
2022-08-17T07:10:57.400Z,99091.75
2022-08-17T07:13:41.646Z,99084.34
2022-08-17T07:16:27.519Z,99088.66
2022-08-17T07:18:57.654Z,99081.28
2022-08-17T07:21:40.980Z,99083.06
2022-08-17T07:24:29.632Z,99084.38
2022-08-17T07:27:38.240Z,99077.22
2022-08-17T07:30:11.269Z,99081.78
2022-08-17T07:32:59.935Z,99082.72
2022-08-17T07:35:31.310Z,99079.84
2022-08-17T07:38:26.902Z,99084.16
2022-08-17T07:41:04.996Z,99079.84
2022-08-17T07:43:41.703Z,99085.03
2022-08-17T09:00:49.323Z,99049.13
2022-08-17T09:03:28.084Z,99044.00
2022-08-17T09:06:33.237Z,99045.13
2022-08-17T09:09:09.790Z,99051.72
2022-08-17T09:12:08.706Z,99053.06
2022-08-17T09:14:45.341Z,99040.47
2022-08-17T09:17:19.497Z,99040.63
2022-08-17T09:19:50.194Z,99040.81
2022-08-17T09:22:31.610Z,99028.78
2022-08-17T09:25:08.198Z,99040.25
2022-08-17T09:27:54.200Z,99038.06
2022-08-17T09:30:23.834Z,99026.94
2022-08-17T09:32:57.423Z,99040.56
2022-08-17T09:35:37.534Z,99034.28
2022-08-17T09:38:23.240Z,99033.47
2022-08-17T09:41:09.569Z,99034.28
2022-08-17T09:44:09.535Z,99030.63
2022-08-17T09:47:06.867Z,99017.97
2022-08-17T09:49:47.595Z,99027.13
2022-08-17T09:52:27.623Z,99020.25
2022-08-17T09:54:56.895Z,99022.13
2022-08-17T09:57:32.326Z,99026.47
2022-08-17T10:00:11.949Z,99022.63
2022-08-17T10:03:09.921Z,99023.13
2022-08-17T10:05:47.191Z,99021.53
2022-08-17T10:08:42.821Z,99015.69
2022-08-17T10:11:50.254Z,99021.25
2022-08-17T10:14:36.237Z,99016.28
2022-08-17T10:17:24.614Z,99010.22
2022-08-17T10:20:13.006Z,99009.97
2022-08-17T10:23:04.925Z,99006.97
2022-08-17T10:25:55.890Z,99002.00
2022-08-17T10:28:31.062Z,98994.47
2022-08-17T10:31:34.361Z,99003.22
2022-08-17T10:34:11.443Z,99001.31
2022-08-17T10:37:11.296Z,98994.50
2022-08-17T10:40:15.508Z,98997.09
2022-08-17T10:43:03.410Z,98997.03
2022-08-17T10:45:48.519Z,98989.09
2022-08-17T10:48:39.993Z,98983.03
2022-08-17T10:51:12.678Z,98978.03
2022-08-17T10:53:43.462Z,98979.56
2022-08-17T10:56:13.675Z,98969.81
2022-08-17T10:58:55.654Z,98960.88
2022-08-17T11:01:29.652Z,98966.97
2022-08-17T11:03:59.148Z,98970.38
2022-08-17T11:06:36.504Z,98965.59
2022-08-17T11:09:19.986Z,98962.38
2022-08-17T11:11:56.093Z,98964.69
2022-08-17T11:14:41.301Z,98957.84
2022-08-17T11:17:22.651Z,98954.88
2022-08-17T11:20:09.625Z,98957.59
2022-08-17T11:23:12.939Z,98947.16
2022-08-17T11:25:47.139Z,98945.19
2022-08-17T11:28:19.279Z,98948.91
2022-08-17T11:30:54.101Z,98943.91
2022-08-17T11:33:30.535Z,98940.19
2022-08-17T11:36:26.377Z,98934.69
2022-08-17T11:39:16.530Z,98926.31
2022-08-17T11:42:18.052Z,98932.72
2022-08-17T11:44:56.961Z,98928.53
2022-08-17T11:47:49.523Z,98933.72
2022-08-17T11:51:07.290Z,98923.50
2022-08-17T11:53:37.673Z,98917.22
2022-08-17T11:56:31.763Z,98922.50
2022-08-17T11:59:00.857Z,98911.63
2022-08-17T12:01:46.396Z,98920.09
2022-08-17T12:04:23.094Z,98917.34
2022-08-17T12:07:01.824Z,98904.66
2022-08-17T12:09:34.635Z,98908.56
2022-08-17T12:12:15.007Z,98908.16
2022-08-17T12:17:40.615Z,98903.34
2022-08-17T12:20:34.967Z,98919.19
2022-08-17T12:23:26.266Z,98910.00
2022-08-17T12:26:24.959Z,98910.28
2022-08-17T12:28:59.709Z,98909.13
2022-08-17T12:31:34.687Z,98905.97
2022-08-17T12:34:04.273Z,98909.91
2022-08-17T12:36:33.615Z,98901.59
2022-08-17T12:39:14.139Z,98902.19
2022-08-17T12:42:01.934Z,98906.94
2022-08-17T12:44:36.091Z,98900.22
2022-08-17T12:47:21.951Z,98909.91
2022-08-17T12:49:53.063Z,98900.94
2022-08-17T12:52:20.362Z,98903.78
2022-08-17T12:55:01.148Z,98903.69
2022-08-17T12:57:42.733Z,98906.88
2022-08-17T13:00:47.483Z,98915.31
2022-08-17T13:03:22.175Z,98928.31
2022-08-17T13:06:01.204Z,98918.06
2022-08-17T13:08:35.618Z,98913.38
2022-08-17T13:11:28.959Z,98895.69
2022-08-17T13:14:08.589Z,98904.09
2022-08-17T13:16:36.398Z,98908.06
2022-08-17T13:19:15.258Z,98904.09
2022-08-17T13:21:50.701Z,98910.03
2022-08-17T13:24:21.713Z,98908.56
2022-08-17T13:27:07.902Z,98916.13
2022-08-17T13:29:39.721Z,98904.06
2022-08-17T13:32:11.560Z,98900.78
2022-08-17T13:35:12.198Z,98900.44
2022-08-17T13:37:35.667Z,98891.28
2022-08-17T13:40:08.866Z,98888.78
2022-08-17T13:42:56.671Z,98891.78
2022-08-17T13:45:39.518Z,98893.50
2022-08-17T13:48:13.794Z,98896.13
2022-08-17T13:50:56.716Z,98897.44
2022-08-17T13:53:34.417Z,98900.97
2022-08-17T13:56:07.444Z,98904.41
2022-08-17T13:59:00.388Z,98896.31
2022-08-17T14:01:34.388Z,98900.63
2022-08-17T14:04:07.075Z,98892.53
2022-08-17T14:06:52.095Z,98901.47
2022-08-17T14:09:23.275Z,98892.81
2022-08-17T14:11:54.023Z,98902.19
2022-08-17T14:14:23.373Z,98894.03
2022-08-17T14:16:52.077Z,98894.94
2022-08-17T14:19:21.979Z,98896.19
2022-08-17T14:21:50.249Z,98885.47
2022-08-17T14:24:44.477Z,98881.75
2022-08-17T14:27:17.730Z,98884.84
2022-08-17T14:29:45.445Z,98882.31
2022-08-17T14:32:23.093Z,98897.78
2022-08-17T14:34:51.083Z,98883.88
2022-08-17T14:37:22.083Z,98893.50
2022-08-17T14:39:49.606Z,98890.66
2022-08-17T14:42:17.679Z,98893.81
2022-08-17T14:44:45.099Z,98889.84
2022-08-17T14:47:15.079Z,98887.16
2022-08-17T14:49:42.421Z,98887.59
2022-08-17T14:52:13.662Z,98888.56
2022-08-17T14:54:45.554Z,98895.22
2022-08-17T14:57:23.804Z,98895.00
2022-08-17T15:00:01.464Z,98890.34
2022-08-17T15:02:30.933Z,98892.16
2022-08-17T15:05:04.695Z,98888.25
2022-08-17T15:07:32.759Z,98885.53
2022-08-17T15:10:02.077Z,98878.66
2022-08-17T15:12:34.056Z,98884.53
2022-08-17T15:15:05.511Z,98878.84
2022-08-17T15:17:45.063Z,98883.06
2022-08-17T15:20:21.656Z,98876.03
2022-08-17T15:23:00.166Z,98876.50
2022-08-17T15:25:30.406Z,98872.38
2022-08-17T15:27:58.600Z,98875.09
2022-08-17T15:30:27.290Z,98880.19
2022-08-17T15:32:56.885Z,98883.97
2022-08-17T15:35:30.691Z,98881.41
2022-08-17T15:38:09.849Z,98879.31
2022-08-17T15:40:44.942Z,98881.44
2022-08-17T15:43:16.169Z,98882.56
2022-08-17T15:45:44.458Z,98879.06
2022-08-17T15:48:24.118Z,98884.28
2022-08-17T15:50:51.598Z,98880.53
2022-08-17T15:53:18.830Z,98883.03
2022-08-17T15:55:46.213Z,98887.44
2022-08-17T15:58:13.457Z,98883.22
2022-08-17T16:00:49.441Z,98888.63
2022-08-17T16:03:59.314Z,98873.38
2022-08-17T16:06:08.949Z,98879.78
2022-08-17T16:08:39.371Z,98888.84
2022-08-17T16:11:08.131Z,98881.28
2022-08-17T16:13:35.567Z,98890.06
2022-08-17T16:16:03.082Z,98887.53
2022-08-17T16:18:31.781Z,98894.69
2022-08-17T16:21:21.837Z,98895.97
2022-08-17T16:23:51.558Z,98891.03
2022-08-17T16:26:19.598Z,98898.63
2022-08-17T16:28:47.527Z,98893.53
2022-08-17T16:31:14.996Z,98893.25
2022-08-17T16:33:43.975Z,98898.50
2022-08-17T16:36:31.346Z,98886.84
2022-08-17T16:38:59.355Z,98890.22
2022-08-17T16:41:44.406Z,98893.81
2022-08-17T16:44:18.263Z,98887.28
2022-08-17T16:46:47.442Z,98896.78
2022-08-17T16:49:35.195Z,98892.66
2022-08-17T16:52:04.564Z,98894.34
2022-08-17T16:54:32.059Z,98890.09
2022-08-17T16:56:59.361Z,98892.91
2022-08-17T16:59:31.362Z,98899.56
2022-08-17T17:02:11.274Z,98896.38
2022-08-17T17:04:52.493Z,98901.44
2022-08-17T17:07:49.748Z,98906.22
2022-08-17T17:10:39.266Z,98911.94
2022-08-17T17:13:13.533Z,98918.56
2022-08-17T17:16:01.362Z,98920.03
2022-08-17T17:18:58.196Z,98917.03
2022-08-17T17:21:36.093Z,98929.25
2022-08-17T17:24:14.596Z,98927.09
2022-08-17T17:27:11.225Z,98931.41
2022-08-17T17:30:00.876Z,98939.72
2022-08-17T17:32:49.767Z,98941.03
2022-08-17T17:35:33.231Z,98940.16
2022-08-17T17:38:08.239Z,98944.94
2022-08-17T17:41:04.576Z,98948.16
2022-08-17T17:43:39.731Z,98947.19
2022-08-17T17:46:43.119Z,98948.69
2022-08-17T17:49:11.385Z,98958.88
2022-08-17T17:52:09.263Z,98948.84
2022-08-17T17:54:38.226Z,98960.88
2022-08-17T17:57:26.646Z,98963.31
2022-08-17T18:00:16.270Z,98971.13
2022-08-17T18:03:01.648Z,98974.41
2022-08-17T18:05:38.796Z,98979.53
2022-08-17T18:08:21.670Z,98975.16
2022-08-17T18:11:24.623Z,98988.09
2022-08-17T18:13:58.712Z,98983.69
2022-08-17T18:16:29.783Z,98993.00
2022-08-17T18:19:00.535Z,98991.50
2022-08-17T18:21:40.072Z,98991.44
2022-08-17T18:24:10.667Z,98996.97
2022-08-17T18:26:44.646Z,99004.00
2022-08-17T18:29:36.580Z,99006.41
2022-08-17T18:32:07.543Z,99004.47
2022-08-17T18:34:47.028Z,99003.41
2022-08-17T18:37:31.661Z,99005.75
2022-08-17T18:39:59.214Z,99000.91
2022-08-17T18:42:32.259Z,99011.44
2022-08-17T18:45:01.077Z,99008.50
2022-08-17T18:47:29.767Z,99019.66
2022-08-17T18:50:18.753Z,99011.47
2022-08-17T18:52:48.742Z,99011.22
2022-08-17T18:55:22.594Z,99013.31
2022-08-17T18:57:56.061Z,99016.59
2022-08-17T19:00:47.482Z,99020.94
2022-08-17T19:03:26.899Z,99024.00
2022-08-17T19:06:17.268Z,99026.63
2022-08-17T19:08:44.768Z,99023.47
2022-08-17T19:11:32.895Z,99035.78
2022-08-17T19:14:06.245Z,99036.19
2022-08-17T19:17:14.909Z,99032.31
2022-08-17T19:19:57.790Z,99034.56
2022-08-17T19:22:36.717Z,99037.84
2022-08-17T19:25:16.913Z,99042.47
2022-08-17T19:28:23.093Z,99044.28
2022-08-17T19:30:57.432Z,99041.53
2022-08-17T19:33:25.456Z,99052.19
2022-08-17T19:36:06.542Z,99053.44
2022-08-17T19:38:39.786Z,99045.44
2022-08-17T19:41:31.654Z,99056.84
2022-08-17T19:44:40.428Z,99057.88
2022-08-17T19:47:36.291Z,99056.50
2022-08-17T19:50:18.964Z,99059.41
2022-08-17T19:53:05.936Z,99064.78
2022-08-17T19:55:43.744Z,99073.50
2022-08-17T19:58:26.672Z,99066.31
2022-08-17T20:00:55.403Z,99071.94
2022-08-17T20:03:52.187Z,99061.84
2022-08-17T20:06:22.309Z,99061.72
2022-08-17T20:09:15.197Z,99060.28
2022-08-17T20:11:49.337Z,99069.50
2022-08-17T20:14:31.709Z,99061.88
2022-08-17T20:17:02.948Z,99070.31
2022-08-17T20:20:08.451Z,99068.94
2022-08-17T20:22:59.684Z,99066.22
2022-08-17T20:26:05.100Z,99068.44
2022-08-17T20:28:39.235Z,99065.00
2022-08-17T20:31:46.923Z,99075.75
2022-08-17T20:34:36.771Z,99074.41
2022-08-17T20:37:28.366Z,99085.75
2022-08-17T20:39:55.934Z,99081.31
2022-08-17T20:42:23.490Z,99074.00
2022-08-17T20:44:58.287Z,99082.66
2022-08-17T20:47:50.459Z,99083.81
2022-08-17T20:50:43.744Z,99078.78
2022-08-17T20:53:33.074Z,99088.13
2022-08-17T20:56:00.447Z,99084.44
2022-08-17T20:58:31.409Z,99082.84
2022-08-17T21:00:59.077Z,99080.81
2022-08-17T21:03:49.175Z,99085.44
2022-08-17T21:06:21.762Z,99086.97
2022-08-17T21:08:55.148Z,99084.78
2022-08-17T21:12:02.867Z,99080.69
2022-08-17T21:14:36.739Z,99082.75
2022-08-17T21:17:39.738Z,99080.06
2022-08-17T21:20:14.885Z,99087.94
2022-08-17T21:23:13.152Z,99091.41
2022-08-17T21:25:48.299Z,99084.72
2022-08-17T21:29:00.505Z,99092.34
2022-08-17T21:31:38.967Z,99098.78
2022-08-17T21:34:15.448Z,99094.72
2022-08-17T21:36:45.500Z,99087.59
2022-08-17T21:39:17.177Z,99088.41
2022-08-17T21:41:57.431Z,99096.59
2022-08-17T21:44:38.284Z,99097.66
2022-08-17T21:47:27.184Z,99100.06
2022-08-17T21:49:56.007Z,99094.16
2022-08-17T21:52:27.459Z,99092.19
2022-08-17T21:55:02.511Z,99097.50
2022-08-17T21:57:32.750Z,99096.28
2022-08-17T22:00:16.478Z,99099.38
2022-08-17T22:02:44.004Z,99095.00
2022-08-17T22:05:14.160Z,99093.16
2022-08-17T22:07:50.936Z,99097.00
2022-08-17T22:10:40.317Z,99096.25
2022-08-17T22:13:18.588Z,99099.19
2022-08-17T22:16:15.390Z,99094.06
2022-08-17T22:18:58.319Z,99088.47
2022-08-17T22:21:26.281Z,99097.31
2022-08-17T22:24:06.459Z,99089.72
2022-08-17T22:27:01.664Z,99090.06
2022-08-17T22:29:47.800Z,99094.88
2022-08-17T22:32:37.505Z,99095.84
2022-08-17T22:35:26.279Z,99097.47
2022-08-17T22:37:53.612Z,99096.59
2022-08-17T22:40:34.545Z,99093.84
2022-08-17T22:43:03.638Z,99094.69
2022-08-17T22:45:32.517Z,99097.81
2022-08-17T22:48:02.130Z,99103.03
2022-08-17T22:50:33.205Z,99099.31
2022-08-17T22:53:34.593Z,99096.97
2022-08-17T22:56:20.581Z,99101.63
2022-08-17T22:59:17.891Z,99101.19
2022-08-17T23:02:05.270Z,99098.25
2022-08-17T23:04:38.060Z,99099.47
2022-08-17T23:07:09.022Z,99106.13
2022-08-17T23:09:36.834Z,99096.91
2022-08-17T23:12:09.201Z,99106.13
2022-08-17T23:14:42.494Z,99094.81
2022-08-17T23:17:10.069Z,99093.41
2022-08-17T23:19:37.775Z,99094.22
2022-08-17T23:22:08.561Z,99091.59
2022-08-17T23:24:42.639Z,99087.56
2022-08-17T23:27:13.510Z,99080.06
2022-08-17T23:29:42.242Z,99085.38
2022-08-17T23:32:13.611Z,99087.56
2022-08-17T23:34:42.552Z,99093.00
2022-08-17T23:37:12.920Z,99086.41
2022-08-17T23:39:40.413Z,99088.56
2022-08-17T23:42:10.733Z,99089.28
2022-08-17T23:44:40.125Z,99083.84
2022-08-17T23:47:07.888Z,99081.28
2022-08-17T23:49:36.410Z,99083.84
2022-08-17T23:52:09.875Z,99078.94
2022-08-17T23:54:43.666Z,99085.41
2022-08-17T23:57:17.975Z,99083.25
2022-08-17T23:59:45.659Z,99086.84
